Ahlsell — OYZH — position and weather

sailwx.info

Track history (hours):
 
Tides and Currents Weather Stations Pressure Air Temp Water Temp Dewpoint Dewpoint Depression Visibility Wind Speed Wind Dir Waves Ship Positions

Ahlsell

Last reported at 2016-Dec-06 09:34 UTC. Time now 2016-Dec-06 10:14 UTC.
Position N 55°41' E 012°38'.

Length 40 m; draft 4 m.

Type: Dredging. MMSI: 219000852.

Date/timePositionNaut miles runAvg speedWind from/ knotsBaromVisibWave heightAir tempDewpointWater temp
2016-Dec-06 09:34N 55°41' E 012°38'0 0.0
2016-Dec-06 08:33N 55°41' E 012°38'5 5.2
2016-Dec-06 07:34N 55°46' E 012°40'7 6.8
2016-Dec-06 06:34N 55°52' E 012°38'6 6.4
2016-Dec-06 05:33N 55°59' E 012°37'5 5.2
2016-Dec-06 04:34N 56°04' E 012°36'0 0.1
2016-Dec-06 03:33N 56°04' E 012°36'7 6.8
2016-Dec-06 02:33N 55°58' E 012°42'8 8.3
2016-Dec-06 01:33N 55°50' E 012°43'8 8.3
2016-Dec-06 00:34N 55°42' E 012°38'2 1.5
2016-Dec-05 23:34N 55°41' E 012°38'0 0.0
2016-Dec-05 22:33N 55°41' E 012°38'7 6.8
2016-Dec-05 21:33N 55°47' E 012°40'8 7.6
2016-Dec-05 20:34N 55°55' E 012°38'7 7.4
2016-Dec-05 19:33N 56°02' E 012°38'2 2.1
2016-Dec-05 18:34N 56°04' E 012°36'5 4.9
2016-Dec-05 17:33N 56°00' E 012°41'7 6.8
2016-Dec-05 16:33N 55°53' E 012°44'7 7.5
2016-Dec-05 15:33N 55°46' E 012°42'7 7.1
2016-Dec-05 14:33N 55°39' E 012°42'7 6.6
2016-Dec-05 13:33N 55°32' E 012°43'7 7.2
2016-Dec-05 12:33N 55°25' E 012°42'7 6.9
2016-Dec-05 11:33N 55°18' E 012°43'7 7.2
2016-Dec-05 10:33N 55°16' E 012°55'28 5.2
2016-Dec-05 05:05N 55°14' E 013°44'2 4.5
2016-Dec-05 04:33N 55°14' E 013°49'4 3.6
2016-Dec-05 03:32N 55°14' E 013°55'4 3.6
2016-Dec-05 02:30N 55°14' E 014°02'4 3.7
2016-Dec-05 01:33N 55°14' E 014°08'5 4.6
2016-Dec-05 00:31N 55°13' E 014°16'4 4.4
2016-Dec-04 23:33N 55°11' E 014°23'4 4.2
2016-Dec-04 22:33N 55°10' E 014°30'5 4.7
2016-Dec-04 21:34N 55°07' E 014°36'3 3.0
2016-Dec-04 20:33N 55°06' E 014°41'0 0.0
2016-Dec-04 19:33N 55°06' E 014°41'0 0.0
2016-Dec-04 18:33N 55°06' E 014°41'0 0.1
2016-Dec-04 17:33N 55°06' E 014°41'2 1.9
2016-Dec-04 16:34N 55°04' E 014°40'1 1.4
2016-Dec-04 15:34N 55°03' E 014°41'0 0.0
2016-Dec-04 14:33N 55°03' E 014°41'0 0.0
2016-Dec-04 13:34N 55°03' E 014°41'0 0.0
2016-Dec-04 12:33N 55°03' E 014°41'3 3.2
2016-Dec-04 11:33N 55°06' E 014°41'0 0.0
2016-Dec-04 10:34N 55°06' E 014°41'0 0.0
2016-Dec-04 09:33N 55°06' E 014°41'3 2.8
2016-Dec-04 08:34N 55°03' E 014°40'0 0.5
2016-Dec-04 07:34N 55°03' E 014°41'0 0.0
2016-Dec-04 06:33N 55°03' E 014°41'3 3.2
2016-Dec-04 05:33N 55°06' E 014°41'0 0.2
2016-Dec-04 04:33N 55°06' E 014°41'0 0.0
2016-Dec-04 03:33N 55°06' E 014°41'0 0.0
2016-Dec-04 02:33N 55°06' E 014°41'0 0.0
2016-Dec-04 01:33N 55°06' E 014°41'0 0.0
2016-Dec-04 00:34N 55°06' E 014°41'0 0.0
2016-Dec-03 23:33N 55°06' E 014°41'0 0.0
2016-Dec-03 22:33N 55°06' E 014°41'0 0.0
2016-Dec-03 21:33N 55°06' E 014°41'0 0.0
2016-Dec-03 20:33N 55°06' E 014°41'0 0.0
2016-Dec-03 19:34N 55°06' E 014°41'0 0.0
2016-Dec-03 18:33N 55°06' E 014°41'0 0.0
2016-Dec-03 17:33N 55°06' E 014°41'0 0.1
2016-Dec-03 16:33N 55°06' E 014°41'0 0.0
2016-Dec-03 15:33N 55°06' E 014°41'2 2.1
2016-Dec-03 14:33N 55°04' E 014°40'5 5.3
2016-Dec-03 13:34N 54°60' E 014°46'4 3.7
2016-Dec-03 12:33N 54°57' E 014°51'3 3.2
2016-Dec-03 11:34N 54°60' E 014°47'7 7.2
2016-Dec-03 10:33N 55°06' E 014°41'0 0.0
2016-Dec-03 09:33N 55°06' E 014°41'2 1.9
2016-Dec-03 08:33N 55°04' E 014°41'0 0.1
2016-Dec-03 07:33N 55°04' E 014°41'0 0.0
2016-Dec-03 06:33N 55°04' E 014°41'2 2.0
2016-Dec-03 05:33N 55°06' E 014°41'0 0.0
2016-Dec-03 04:34N 55°06' E 014°41'0 0.0
2016-Dec-03 03:33N 55°06' E 014°41'0 0.0
2016-Dec-03 02:33N 55°06' E 014°41'0 0.0
2016-Dec-03 01:33N 55°06' E 014°41'0 0.0
2016-Dec-03 00:33N 55°06' E 014°41'0 0.0
2016-Dec-02 23:33N 55°06' E 014°41'0 0.0
2016-Dec-02 22:34N 55°06' E 014°41'0 0.0
2016-Dec-02 21:34N 55°06' E 014°41'0 0.0
2016-Dec-02 20:34N 55°06' E 014°41'0 0.0
2016-Dec-02 19:33N 55°06' E 014°41'0 0.0
2016-Dec-02 18:33N 55°06' E 014°41'0 0.0
2016-Dec-02 17:33N 55°06' E 014°41'0 0.0
2016-Dec-02 16:33N 55°06' E 014°41'0 0.0
2016-Dec-02 15:34N 55°06' E 014°41'0 0.0
2016-Dec-02 14:33N 55°06' E 014°41'0 0.0
2016-Dec-02 13:34N 55°06' E 014°41'0 0.0
2016-Dec-02 12:34N 55°06' E 014°41'0 0.0
2016-Dec-02 11:33N 55°06' E 014°41'0 0.0
2016-Dec-02 10:34N 55°06' E 014°41'0 0.0
2016-Dec-02 09:34N 55°06' E 014°41'0 0.0
2016-Dec-02 08:33N 55°06' E 014°41'0 0.0
2016-Dec-02 07:33N 55°06' E 014°41'0 0.0
2016-Dec-02 06:34N 55°06' E 014°41'0 0.0
2016-Dec-02 05:33N 55°06' E 014°41'0 0.0
2016-Dec-02 04:33N 55°06' E 014°41'0 0.0
2016-Dec-02 03:33N 55°06' E 014°41'0 0.0
2016-Dec-02 02:33N 55°06' E 014°41'0 0.0
2016-Dec-02 01:33N 55°06' E 014°41'0 0.0
2016-Dec-02 00:33N 55°06' E 014°41'0 0.0
2016-Dec-01 23:33N 55°06' E 014°41'0 0.0
2016-Dec-01 22:33N 55°06' E 014°41'0 0.0
2016-Dec-01 21:33N 55°06' E 014°41'0 0.0
2016-Dec-01 20:33N 55°06' E 014°41'0 0.0
2016-Dec-01 19:33N 55°06' E 014°41'0 0.0
2016-Dec-01 18:33N 55°06' E 014°41'0 0.0
2016-Dec-01 17:33N 55°06' E 014°41'0 0.0
2016-Dec-01 16:33N 55°06' E 014°41'0 0.0
2016-Dec-01 15:33N 55°06' E 014°41'0 0.0
2016-Dec-01 14:33N 55°06' E 014°41'0 0.0
2016-Dec-01 13:33N 55°06' E 014°41'0 0.0
2016-Dec-01 12:34N 55°06' E 014°41'0 0.0
2016-Dec-01 11:33N 55°06' E 014°41'0 0.0
2016-Dec-01 10:33N 55°06' E 014°41'0 0.0
2016-Dec-01 09:33N 55°06' E 014°41'0 0.0
2016-Dec-01 08:33N 55°06' E 014°41'0 0.1
2016-Dec-01 07:34N 55°06' E 014°41'0 0.0
2016-Dec-01 06:33N 55°06' E 014°41'2 2.0
2016-Dec-01 05:33N 55°04' E 014°41'0 0.0
2016-Dec-01 04:33N 55°04' E 014°41'2 2.0
2016-Dec-01 03:34N 55°06' E 014°41'0 0.0
2016-Dec-01 02:33N 55°06' E 014°41'1 1.1
2016-Dec-01 01:33N 55°05' E 014°41'1 1.0
2016-Dec-01 00:33N 55°04' E 014°41'0 0.0
2016-Nov-30 23:33N 55°04' E 014°41'0 0.0
2016-Nov-30 22:34N 55°04' E 014°41'2 2.0
2016-Nov-30 21:33N 55°06' E 014°41'0 0.0
2016-Nov-30 20:33N 55°06' E 014°41'0 0.0
2016-Nov-30 19:34N 55°06' E 014°41'0 0.0
2016-Nov-30 18:33N 55°06' E 014°41'0 0.0
2016-Nov-30 17:34N 55°06' E 014°41'0 0.0
2016-Nov-30 16:33N 55°06' E 014°41'0 0.0
2016-Nov-30 15:33N 55°06' E 014°41'0 0.0
2016-Nov-30 14:33N 55°06' E 014°41'0 0.0
2016-Nov-30 13:33N 55°06' E 014°41'0 0.0
2016-Nov-30 12:33N 55°06' E 014°41'0 0.0
2016-Nov-30 11:33N 55°06' E 014°41'0 0.0
2016-Nov-30 10:33N 55°06' E 014°41'0 0.0
2016-Nov-30 09:33N 55°06' E 014°41'0 0.0
2016-Nov-30 08:34N 55°06' E 014°41'0 0.0
2016-Nov-30 07:33N 55°06' E 014°41'0 0.0
2016-Nov-30 06:33N 55°06' E 014°41'0 0.0
2016-Nov-30 05:34N 55°06' E 014°41'0 0.0
2016-Nov-30 04:33N 55°06' E 014°41'0 0.0
2016-Nov-30 03:34N 55°06' E 014°41'0 0.0
2016-Nov-30 02:33N 55°06' E 014°41'0 0.0
2016-Nov-30 01:34N 55°06' E 014°41'0 0.0
2016-Nov-30 00:34N 55°06' E 014°41'0 0.0
2016-Nov-29 23:33N 55°06' E 014°41'0 0.0
2016-Nov-29 22:33N 55°06' E 014°41'0 0.0
2016-Nov-29 21:33N 55°06' E 014°41'0 0.0
2016-Nov-29 20:34N 55°06' E 014°41'0 0.0
2016-Nov-29 19:34N 55°06' E 014°41'0 0.0
2016-Nov-29 18:33N 55°06' E 014°41'0 0.0
2016-Nov-29 17:33N 55°06' E 014°41'0 0.0
2016-Nov-29 16:34N 55°06' E 014°41'0 0.0
2016-Nov-29 15:34N 55°06' E 014°41'0 0.0
2016-Nov-29 14:34N 55°06' E 014°41'0 0.0
2016-Nov-29 13:33N 55°06' E 014°41'0 0.0
2016-Nov-29 12:33N 55°06' E 014°41'0 0.0
2016-Nov-29 11:33N 55°06' E 014°41'0 0.0
2016-Nov-29 10:33N 55°06' E 014°41'0 0.0
2016-Nov-29 09:33N 55°06' E 014°41'0 0.0
2016-Nov-29 08:33N 55°06' E 014°41'0 0.0
2016-Nov-29 07:33N 55°06' E 014°41'0 0.0
2016-Nov-29 06:33N 55°06' E 014°41'0 0.0
2016-Nov-29 05:33N 55°06' E 014°41'0 0.0
2016-Nov-29 04:33N 55°06' E 014°41'0 0.0
2016-Nov-29 03:34N 55°06' E 014°41'0 0.0
2016-Nov-29 02:34N 55°06' E 014°41'0 0.0
2016-Nov-29 01:33N 55°06' E 014°41'0 0.0
2016-Nov-29 00:33N 55°06' E 014°41'0 0.0
2016-Nov-28 23:33N 55°06' E 014°41'0 0.0
2016-Nov-28 22:34N 55°06' E 014°41'0 0.0
2016-Nov-28 21:33N 55°06' E 014°41'0 0.1
2016-Nov-28 20:34N 55°06' E 014°41'0 0.0
2016-Nov-28 19:33N 55°06' E 014°41'2 2.0
2016-Nov-28 18:33N 55°04' E 014°41'0 0.0
2016-Nov-28 17:34N 55°04' E 014°41'0 0.0
2016-Nov-28 16:34N 55°04' E 014°41'0 0.0
2016-Nov-28 15:34N 55°04' E 014°41'0 0.0
2016-Nov-28 14:34N 55°04' E 014°41'0 0.0
2016-Nov-28 13:33N 55°04' E 014°41'2 2.0
2016-Nov-28 12:33N 55°06' E 014°41'0 0.0
2016-Nov-28 11:33N 55°06' E 014°41'0 0.0
2016-Nov-28 10:33N 55°06' E 014°41'0 0.0
2016-Nov-28 09:33N 55°06' E 014°41'0 0.0
2016-Nov-28 08:33N 55°06' E 014°41'0 0.0
2016-Nov-28 07:33N 55°06' E 014°41'0 0.0
2016-Nov-28 06:33N 55°06' E 014°41'0 0.0
2016-Nov-28 05:33N 55°06' E 014°41'0 0.0
2016-Nov-28 04:33N 55°06' E 014°41'0 0.0
2016-Nov-28 03:33N 55°06' E 014°41'0 0.0
2016-Nov-28 02:33N 55°06' E 014°41'0 0.0
2016-Nov-28 01:33N 55°06' E 014°41'0 0.0
2016-Nov-28 00:33N 55°06' E 014°41'0 0.0
2016-Nov-27 23:33N 55°06' E 014°41'0 0.0
2016-Nov-27 22:33N 55°06' E 014°41'0 0.0
2016-Nov-27 21:33N 55°06' E 014°41'0 0.0
2016-Nov-27 20:33N 55°06' E 014°41'0 0.0
2016-Nov-27 19:33N 55°06' E 014°41'0 0.0
2016-Nov-27 18:33N 55°06' E 014°41'0 0.0
2016-Nov-27 17:33N 55°06' E 014°41'0 0.0
2016-Nov-27 16:33N 55°06' E 014°41'0 0.0
2016-Nov-27 15:33N 55°06' E 014°41'0 0.0
2016-Nov-27 14:33N 55°06' E 014°41'0 0.0
2016-Nov-27 13:33N 55°06' E 014°41'0 0.0
2016-Nov-27 12:33N 55°06' E 014°41'0 0.0
2016-Nov-27 11:34N 55°06' E 014°41'0 0.0
2016-Nov-27 10:33N 55°06' E 014°41'0 0.0
2016-Nov-27 09:33N 55°06' E 014°41'0 0.0
2016-Nov-27 08:33N 55°06' E 014°41'0 0.0
2016-Nov-27 07:33N 55°06' E 014°41'0 0.0
2016-Nov-27 06:33N 55°06' E 014°41'0 0.0
2016-Nov-27 05:33N 55°06' E 014°41'0 0.0
2016-Nov-27 04:33N 55°06' E 014°41'0 0.0
2016-Nov-27 03:33N 55°06' E 014°41'0 0.0
2016-Nov-27 02:33N 55°06' E 014°41'0 0.0
2016-Nov-27 01:33N 55°06' E 014°41'0 0.0
2016-Nov-27 00:33N 55°06' E 014°41'0 0.0
2016-Nov-26 23:33N 55°06' E 014°41'0 0.0
2016-Nov-26 22:33N 55°06' E 014°41'0 0.0
2016-Nov-26 21:33N 55°06' E 014°41'0 0.0
2016-Nov-26 20:33N 55°06' E 014°41'0 0.0
2016-Nov-26 19:33N 55°06' E 014°41'0 0.0
2016-Nov-26 18:33N 55°06' E 014°41'0 0.0
2016-Nov-26 17:33N 55°06' E 014°41'0 0.0
2016-Nov-26 16:34N 55°06' E 014°41'0 0.0
2016-Nov-26 15:33N 55°06' E 014°41'0 0.0
2016-Nov-26 14:33N 55°06' E 014°41'0 0.0
2016-Nov-26 13:33N 55°06' E 014°41'0 0.0
2016-Nov-26 12:34N 55°06' E 014°41'0 0.0
2016-Nov-26 11:34N 55°06' E 014°41'0 0.0
2016-Nov-26 10:33N 55°06' E 014°41'  
Track history (hours):
 
Tides and Currents Weather Stations Pressure Air Temp Water Temp Dewpoint Dewpoint Depression Visibility Wind Speed Wind Dir Waves Ship Positions

Ahlsell

Last reported at 2016-Dec-06 09:34 UTC. Time now 2016-Dec-06 10:14 UTC.
Position N 55°41' E 012°38'.

Length 40 m; draft 4 m.

Type: Dredging. MMSI: 219000852.

Date/timePositionNaut miles runAvg speedWind from/ knotsBaromVisibWave heightAir tempDewpointWater temp
2016-Dec-06 09:34N 55°41' E 012°38'0 0.0
2016-Dec-06 08:33N 55°41' E 012°38'5 5.2
2016-Dec-06 07:34N 55°46' E 012°40'7 6.8
2016-Dec-06 06:34N 55°52' E 012°38'6 6.4
2016-Dec-06 05:33N 55°59' E 012°37'5 5.2
2016-Dec-06 04:34N 56°04' E 012°36'0 0.1
2016-Dec-06 03:33N 56°04' E 012°36'7 6.8
2016-Dec-06 02:33N 55°58' E 012°42'8 8.3
2016-Dec-06 01:33N 55°50' E 012°43'8 8.3
2016-Dec-06 00:34N 55°42' E 012°38'2 1.5
2016-Dec-05 23:34N 55°41' E 012°38'0 0.0
2016-Dec-05 22:33N 55°41' E 012°38'7 6.8
2016-Dec-05 21:33N 55°47' E 012°40'8 7.6
2016-Dec-05 20:34N 55°55' E 012°38'7 7.4
2016-Dec-05 19:33N 56°02' E 012°38'2 2.1
2016-Dec-05 18:34N 56°04' E 012°36'5 4.9
2016-Dec-05 17:33N 56°00' E 012°41'7 6.8
2016-Dec-05 16:33N 55°53' E 012°44'7 7.5
2016-Dec-05 15:33N 55°46' E 012°42'7 7.1
2016-Dec-05 14:33N 55°39' E 012°42'7 6.6
2016-Dec-05 13:33N 55°32' E 012°43'7 7.2
2016-Dec-05 12:33N 55°25' E 012°42'7 6.9
2016-Dec-05 11:33N 55°18' E 012°43'7 7.2
2016-Dec-05 10:33N 55°16' E 012°55'28 5.2
2016-Dec-05 05:05N 55°14' E 013°44'2 4.5
2016-Dec-05 04:33N 55°14' E 013°49'4 3.6
2016-Dec-05 03:32N 55°14' E 013°55'4 3.6
2016-Dec-05 02:30N 55°14' E 014°02'4 3.7
2016-Dec-05 01:33N 55°14' E 014°08'5 4.6
2016-Dec-05 00:31N 55°13' E 014°16'4 4.4
2016-Dec-04 23:33N 55°11' E 014°23'4 4.2
2016-Dec-04 22:33N 55°10' E 014°30'5 4.7
2016-Dec-04 21:34N 55°07' E 014°36'3 3.0
2016-Dec-04 20:33N 55°06' E 014°41'0 0.0
2016-Dec-04 19:33N 55°06' E 014°41'0 0.0
2016-Dec-04 18:33N 55°06' E 014°41'0 0.1
2016-Dec-04 17:33N 55°06' E 014°41'2 1.9
2016-Dec-04 16:34N 55°04' E 014°40'1 1.4
2016-Dec-04 15:34N 55°03' E 014°41'0 0.0
2016-Dec-04 14:33N 55°03' E 014°41'0 0.0
2016-Dec-04 13:34N 55°03' E 014°41'0 0.0
2016-Dec-04 12:33N 55°03' E 014°41'3 3.2
2016-Dec-04 11:33N 55°06' E 014°41'0 0.0
2016-Dec-04 10:34N 55°06' E 014°41'0 0.0
2016-Dec-04 09:33N 55°06' E 014°41'3 2.8
2016-Dec-04 08:34N 55°03' E 014°40'0 0.5
2016-Dec-04 07:34N 55°03' E 014°41'0 0.0
2016-Dec-04 06:33N 55°03' E 014°41'3 3.2
2016-Dec-04 05:33N 55°06' E 014°41'0 0.2
2016-Dec-04 04:33N 55°06' E 014°41'0 0.0
2016-Dec-04 03:33N 55°06' E 014°41'0 0.0
2016-Dec-04 02:33N 55°06' E 014°41'0 0.0
2016-Dec-04 01:33N 55°06' E 014°41'0 0.0
2016-Dec-04 00:34N 55°06' E 014°41'0 0.0
2016-Dec-03 23:33N 55°06' E 014°41'0 0.0
2016-Dec-03 22:33N 55°06' E 014°41'0 0.0
2016-Dec-03 21:33N 55°06' E 014°41'0 0.0
2016-Dec-03 20:33N 55°06' E 014°41'0 0.0
2016-Dec-03 19:34N 55°06' E 014°41'0 0.0
2016-Dec-03 18:33N 55°06' E 014°41'0 0.0
2016-Dec-03 17:33N 55°06' E 014°41'0 0.1
2016-Dec-03 16:33N 55°06' E 014°41'0 0.0
2016-Dec-03 15:33N 55°06' E 014°41'2 2.1
2016-Dec-03 14:33N 55°04' E 014°40'5 5.3
2016-Dec-03 13:34N 54°60' E 014°46'4 3.7
2016-Dec-03 12:33N 54°57' E 014°51'3 3.2
2016-Dec-03 11:34N 54°60' E 014°47'7 7.2
2016-Dec-03 10:33N 55°06' E 014°41'0 0.0
2016-Dec-03 09:33N 55°06' E 014°41'2 1.9
2016-Dec-03 08:33N 55°04' E 014°41'0 0.1
2016-Dec-03 07:33N 55°04' E 014°41'0 0.0
2016-Dec-03 06:33N 55°04' E 014°41'2 2.0
2016-Dec-03 05:33N 55°06' E 014°41'0 0.0
2016-Dec-03 04:34N 55°06' E 014°41'0 0.0
2016-Dec-03 03:33N 55°06' E 014°41'0 0.0
2016-Dec-03 02:33N 55°06' E 014°41'0 0.0
2016-Dec-03 01:33N 55°06' E 014°41'0 0.0
2016-Dec-03 00:33N 55°06' E 014°41'0 0.0
2016-Dec-02 23:33N 55°06' E 014°41'0 0.0
2016-Dec-02 22:34N 55°06' E 014°41'0 0.0
2016-Dec-02 21:34N 55°06' E 014°41'0 0.0
2016-Dec-02 20:34N 55°06' E 014°41'0 0.0
2016-Dec-02 19:33N 55°06' E 014°41'0 0.0
2016-Dec-02 18:33N 55°06' E 014°41'0 0.0
2016-Dec-02 17:33N 55°06' E 014°41'0 0.0
2016-Dec-02 16:33N 55°06' E 014°41'0 0.0
2016-Dec-02 15:34N 55°06' E 014°41'0 0.0
2016-Dec-02 14:33N 55°06' E 014°41'0 0.0
2016-Dec-02 13:34N 55°06' E 014°41'0 0.0
2016-Dec-02 12:34N 55°06' E 014°41'0 0.0
2016-Dec-02 11:33N 55°06' E 014°41'0 0.0
2016-Dec-02 10:34N 55°06' E 014°41'0 0.0
2016-Dec-02 09:34N 55°06' E 014°41'0 0.0
2016-Dec-02 08:33N 55°06' E 014°41'0 0.0
2016-Dec-02 07:33N 55°06' E 014°41'0 0.0
2016-Dec-02 06:34N 55°06' E 014°41'0 0.0
2016-Dec-02 05:33N 55°06' E 014°41'0 0.0
2016-Dec-02 04:33N 55°06' E 014°41'0 0.0
2016-Dec-02 03:33N 55°06' E 014°41'0 0.0
2016-Dec-02 02:33N 55°06' E 014°41'0 0.0
2016-Dec-02 01:33N 55°06' E 014°41'0 0.0
2016-Dec-02 00:33N 55°06' E 014°41'0 0.0
2016-Dec-01 23:33N 55°06' E 014°41'0 0.0
2016-Dec-01 22:33N 55°06' E 014°41'0 0.0
2016-Dec-01 21:33N 55°06' E 014°41'0 0.0
2016-Dec-01 20:33N 55°06' E 014°41'0 0.0
2016-Dec-01 19:33N 55°06' E 014°41'0 0.0
2016-Dec-01 18:33N 55°06' E 014°41'0 0.0
2016-Dec-01 17:33N 55°06' E 014°41'0 0.0
2016-Dec-01 16:33N 55°06' E 014°41'0 0.0
2016-Dec-01 15:33N 55°06' E 014°41'0 0.0
2016-Dec-01 14:33N 55°06' E 014°41'0 0.0
2016-Dec-01 13:33N 55°06' E 014°41'0 0.0
2016-Dec-01 12:34N 55°06' E 014°41'0 0.0
2016-Dec-01 11:33N 55°06' E 014°41'0 0.0
2016-Dec-01 10:33N 55°06' E 014°41'0 0.0
2016-Dec-01 09:33N 55°06' E 014°41'0 0.0
2016-Dec-01 08:33N 55°06' E 014°41'0 0.1
2016-Dec-01 07:34N 55°06' E 014°41'0 0.0
2016-Dec-01 06:33N 55°06' E 014°41'2 2.0
2016-Dec-01 05:33N 55°04' E 014°41'0 0.0
2016-Dec-01 04:33N 55°04' E 014°41'2 2.0
2016-Dec-01 03:34N 55°06' E 014°41'0 0.0
2016-Dec-01 02:33N 55°06' E 014°41'1 1.1
2016-Dec-01 01:33N 55°05' E 014°41'1 1.0
2016-Dec-01 00:33N 55°04' E 014°41'0 0.0
2016-Nov-30 23:33N 55°04' E 014°41'0 0.0
2016-Nov-30 22:34N 55°04' E 014°41'2 2.0
2016-Nov-30 21:33N 55°06' E 014°41'0 0.0
2016-Nov-30 20:33N 55°06' E 014°41'0 0.0
2016-Nov-30 19:34N 55°06' E 014°41'0 0.0
2016-Nov-30 18:33N 55°06' E 014°41'0 0.0
2016-Nov-30 17:34N 55°06' E 014°41'0 0.0
2016-Nov-30 16:33N 55°06' E 014°41'0 0.0
2016-Nov-30 15:33N 55°06' E 014°41'0 0.0
2016-Nov-30 14:33N 55°06' E 014°41'0 0.0
2016-Nov-30 13:33N 55°06' E 014°41'0 0.0
2016-Nov-30 12:33N 55°06' E 014°41'0 0.0
2016-Nov-30 11:33N 55°06' E 014°41'0 0.0
2016-Nov-30 10:33N 55°06' E 014°41'0 0.0
2016-Nov-30 09:33N 55°06' E 014°41'0 0.0
2016-Nov-30 08:34N 55°06' E 014°41'0 0.0
2016-Nov-30 07:33N 55°06' E 014°41'0 0.0
2016-Nov-30 06:33N 55°06' E 014°41'0 0.0
2016-Nov-30 05:34N 55°06' E 014°41'0 0.0
2016-Nov-30 04:33N 55°06' E 014°41'0 0.0
2016-Nov-30 03:34N 55°06' E 014°41'0 0.0
2016-Nov-30 02:33N 55°06' E 014°41'0 0.0
2016-Nov-30 01:34N 55°06' E 014°41'0 0.0
2016-Nov-30 00:34N 55°06' E 014°41'0 0.0
2016-Nov-29 23:33N 55°06' E 014°41'0 0.0
2016-Nov-29 22:33N 55°06' E 014°41'0 0.0
2016-Nov-29 21:33N 55°06' E 014°41'0 0.0
2016-Nov-29 20:34N 55°06' E 014°41'0 0.0
2016-Nov-29 19:34N 55°06' E 014°41'0 0.0
2016-Nov-29 18:33N 55°06' E 014°41'0 0.0
2016-Nov-29 17:33N 55°06' E 014°41'0 0.0
2016-Nov-29 16:34N 55°06' E 014°41'0 0.0
2016-Nov-29 15:34N 55°06' E 014°41'0 0.0
2016-Nov-29 14:34N 55°06' E 014°41'0 0.0
2016-Nov-29 13:33N 55°06' E 014°41'0 0.0
2016-Nov-29 12:33N 55°06' E 014°41'0 0.0
2016-Nov-29 11:33N 55°06' E 014°41'0 0.0
2016-Nov-29 10:33N 55°06' E 014°41'0 0.0
2016-Nov-29 09:33N 55°06' E 014°41'0 0.0
2016-Nov-29 08:33N 55°06' E 014°41'0 0.0
2016-Nov-29 07:33N 55°06' E 014°41'0 0.0
2016-Nov-29 06:33N 55°06' E 014°41'0 0.0
2016-Nov-29 05:33N 55°06' E 014°41'0 0.0
2016-Nov-29 04:33N 55°06' E 014°41'0 0.0
2016-Nov-29 03:34N 55°06' E 014°41'0 0.0
2016-Nov-29 02:34N 55°06' E 014°41'0 0.0
2016-Nov-29 01:33N 55°06' E 014°41'0 0.0
2016-Nov-29 00:33N 55°06' E 014°41'0 0.0
2016-Nov-28 23:33N 55°06' E 014°41'0 0.0
2016-Nov-28 22:34N 55°06' E 014°41'0 0.0
2016-Nov-28 21:33N 55°06' E 014°41'0 0.1
2016-Nov-28 20:34N 55°06' E 014°41'0 0.0
2016-Nov-28 19:33N 55°06' E 014°41'2 2.0
2016-Nov-28 18:33N 55°04' E 014°41'0 0.0
2016-Nov-28 17:34N 55°04' E 014°41'0 0.0
2016-Nov-28 16:34N 55°04' E 014°41'0 0.0
2016-Nov-28 15:34N 55°04' E 014°41'0 0.0
2016-Nov-28 14:34N 55°04' E 014°41'0 0.0
2016-Nov-28 13:33N 55°04' E 014°41'2 2.0
2016-Nov-28 12:33N 55°06' E 014°41'0 0.0
2016-Nov-28 11:33N 55°06' E 014°41'0 0.0
2016-Nov-28 10:33N 55°06' E 014°41'0 0.0
2016-Nov-28 09:33N 55°06' E 014°41'0 0.0
2016-Nov-28 08:33N 55°06' E 014°41'0 0.0
2016-Nov-28 07:33N 55°06' E 014°41'0 0.0
2016-Nov-28 06:33N 55°06' E 014°41'0 0.0
2016-Nov-28 05:33N 55°06' E 014°41'0 0.0
2016-Nov-28 04:33N 55°06' E 014°41'0 0.0
2016-Nov-28 03:33N 55°06' E 014°41'0 0.0
2016-Nov-28 02:33N 55°06' E 014°41'0 0.0
2016-Nov-28 01:33N 55°06' E 014°41'0 0.0
2016-Nov-28 00:33N 55°06' E 014°41'0 0.0
2016-Nov-27 23:33N 55°06' E 014°41'0 0.0
2016-Nov-27 22:33N 55°06' E 014°41'0 0.0
2016-Nov-27 21:33N 55°06' E 014°41'0 0.0
2016-Nov-27 20:33N 55°06' E 014°41'0 0.0
2016-Nov-27 19:33N 55°06' E 014°41'0 0.0
2016-Nov-27 18:33N 55°06' E 014°41'0 0.0
2016-Nov-27 17:33N 55°06' E 014°41'0 0.0
2016-Nov-27 16:33N 55°06' E 014°41'0 0.0
2016-Nov-27 15:33N 55°06' E 014°41'0 0.0
2016-Nov-27 14:33N 55°06' E 014°41'0 0.0
2016-Nov-27 13:33N 55°06' E 014°41'0 0.0
2016-Nov-27 12:33N 55°06' E 014°41'0 0.0
2016-Nov-27 11:34N 55°06' E 014°41'0 0.0
2016-Nov-27 10:33N 55°06' E 014°41'0 0.0
2016-Nov-27 09:33N 55°06' E 014°41'0 0.0
2016-Nov-27 08:33N 55°06' E 014°41'0 0.0
2016-Nov-27 07:33N 55°06' E 014°41'0 0.0
2016-Nov-27 06:33N 55°06' E 014°41'0 0.0
2016-Nov-27 05:33N 55°06' E 014°41'0 0.0
2016-Nov-27 04:33N 55°06' E 014°41'0 0.0
2016-Nov-27 03:33N 55°06' E 014°41'0 0.0
2016-Nov-27 02:33N 55°06' E 014°41'0 0.0
2016-Nov-27 01:33N 55°06' E 014°41'0 0.0
2016-Nov-27 00:33N 55°06' E 014°41'0 0.0
2016-Nov-26 23:33N 55°06' E 014°41'0 0.0
2016-Nov-26 22:33N 55°06' E 014°41'0 0.0
2016-Nov-26 21:33N 55°06' E 014°41'0 0.0
2016-Nov-26 20:33N 55°06' E 014°41'0 0.0
2016-Nov-26 19:33N 55°06' E 014°41'0 0.0
2016-Nov-26 18:33N 55°06' E 014°41'0 0.0
2016-Nov-26 17:33N 55°06' E 014°41'0 0.0
2016-Nov-26 16:34N 55°06' E 014°41'0 0.0
2016-Nov-26 15:33N 55°06' E 014°41'0 0.0
2016-Nov-26 14:33N 55°06' E 014°41'0 0.0
2016-Nov-26 13:33N 55°06' E 014°41'0 0.0
2016-Nov-26 12:34N 55°06' E 014°41'0 0.0
2016-Nov-26 11:34N 55°06' E 014°41'0 0.0
2016-Nov-26 10:33N 55°06' E 014°41'  

Dump ship's entire track history